Time;durP1;ratioP1;P1;durP2;ratioP2;P2;SDS_P1;SDS_P2;PMS_P1;PMS_P2;Temp;Humidity;BMP_temperature;BMP_pressure;BME280_temperature;BME280_humidity;BME280_pressure;Samples;Min_cycle;Max_cycle;Signal;HPM_P1;HPM_P2
2024/02/23 00:00:38;;;;;;;;;;;;;;;25.36;38.41;92525.81;5053587;28;8836;-39
2024/02/23 00:03:05;;;;;;;;;;;;;;;25.38;37.53;92528.78;5052938;28;7641;-37
2024/02/23 00:05:31;;;;;;;;;;;;;;;25.37;37.43;92521.78;5054888;28;7287;-37
2024/02/23 00:07:57;;;;;;;;;;;;;;;25.36;37.52;92520.31;5041547;28;8769;-37
2024/02/23 00:10:23;;;;;;;;;;;;;;;25.38;37.73;92517.75;5034123;28;7020;-37
2024/02/23 00:12:52;;;;;;;;;;;;;;;25.38;38.09;92534.28;5033765;28;6975;-38
2024/02/23 00:15:20;;;;;;;;;;;;;;;25.34;37.60;92518.13;5042528;28;9028;-38
2024/02/23 00:17:46;;;;;;;;;;;;;;;25.38;38.30;92517.75;5054477;28;8760;-37
2024/02/23 00:20:15;;;;;;;;;;;;;;;25.36;37.49;92525.81;5056057;28;7208;-37
2024/02/23 00:22:40;;;;;;;;;;;;;;;25.37;37.77;92521.78;5037406;28;7294;-37
2024/02/23 00:25:07;;;;;;;;;;;;;;;25.34;38.42;92512.63;5052626;28;7277;-37
2024/02/23 00:27:33;;;;;;;;;;;;;;;25.37;37.49;92511.53;5054121;28;7045;-37
2024/02/23 00:30:02;;;;;;;;;;;;;;;25.35;38.28;92519.59;5053036;28;7411;-37
2024/02/23 00:32:30;;;;;;;;;;;;;;;25.37;38.46;92516.28;5039855;28;9483;-37
2024/02/23 00:34:59;;;;;;;;;;;;;;;25.37;38.09;92516.28;5054464;28;9009;-37
2024/02/23 00:37:26;;;;;;;;;;;;;;;25.38;37.87;92517.75;5038259;28;8730;-37
2024/02/23 00:40:05;;;;;;;;;;;;;;;25.37;37.41;92517.03;5054978;28;7228;-37
2024/02/23 00:42:42;;;;;;;;;;;;;;;25.37;38.10;92519.03;5044048;28;8694;-37
2024/02/23 00:45:10;;;;;;;;;;;;;;;25.37;37.55;92527.28;5054492;28;7268;-37
2024/02/23 00:47:36;;;;;;;;;;;;;;;25.37;38.38;92532.81;5053734;28;8723;-37
2024/02/23 00:50:02;;;;;;;;;;;;;;;25.38;37.53;92542.53;5053226;28;9388;-37
2024/02/23 00:52:28;;;;;;;;;;;;;;;25.35;37.46;92530.59;5036246;28;7278;-37
2024/02/23 00:54:54;;;;;;;;;;;;;;;25.38;37.32;92553.53;5032856;28;8796;-37
2024/02/23 00:57:27;;;;;;;;;;;;;;;25.37;37.86;92543.81;5038000;28;7504;-37
2024/02/23 00:59:55;;;;;;;;;;;;;;;25.37;38.03;92550.06;5053690;28;7431;-37
2024/02/23 01:02:50;;;;;;;;;;;;;;;25.36;38.36;92545.09;5046703;28;7011;-37
2024/02/23 01:05:20;;;;;;;;;;;;;;;25.36;37.54;92564.34;4982153;28;7606;-37
2024/02/23 01:07:46;;;;;;;;;;;;;;;25.36;37.47;92567.09;4975014;28;7153;-37
2024/02/23 01:10:33;;;;;;;;;;;;;;;25.36;37.95;92564.34;4972257;28;9043;-37
2024/02/23 01:13:21;;;;;;;;;;;;;;;25.39;37.67;92563.25;4994116;28;9029;-37
2024/02/23 01:15:47;;;;;;;;;;;;;;;25.39;38.29;92552.25;4977805;28;7019;-37
2024/02/23 01:18:15;;;;;;;;;;;;;;;25.37;38.04;92555.56;4977718;28;9457;-37
2024/02/23 01:20:41;;;;;;;;;;;;;;;25.34;38.36;92572.41;4973070;28;7188;-37
2024/02/23 01:23:06;;;;;;;;;;;;;;;25.39;38.24;92585.28;4975621;28;9222;-57
2024/02/23 01:25:34;;;;;;;;;;;;;;;25.35;37.60;92576.66;4975802;28;7617;-57
2024/02/23 01:28:05;;;;;;;;;;;;;;;25.35;37.72;92573.91;4975810;28;7044;-57
2024/02/23 01:30:33;;;;;;;;;;;;;;;25.35;37.70;92576.66;4991827;28;7398;-57
2024/02/23 01:33:00;;;;;;;;;;;;;;;25.39;37.88;92579.75;4975682;28;8879;-57
2024/02/23 01:35:33;;;;;;;;;;;;;;;25.38;38.36;92575.56;4974951;28;7064;-57
2024/02/23 01:37:59;;;;;;;;;;;;;;;25.39;37.67;92568.75;4975076;28;9088;-57
2024/02/23 01:40:41;;;;;;;;;;;;;;;25.37;37.67;92557.56;4977239;28;9894;-57
2024/02/23 01:43:06;;;;;;;;;;;;;;;25.37;38.10;92555.56;5037219;28;7002;-57
2024/02/23 01:46:11;;;;;;;;;;;;;;;25.37;38.13;92565.81;5054809;28;7273;-57
2024/02/23 01:48:45;;;;;;;;;;;;;;;25.37;38.35;92580.31;5033012;28;7372;-57
2024/02/23 01:51:14;;;;;;;;;;;;;;;25.36;37.35;92578.84;5034752;28;7058;-57
2024/02/23 01:53:40;;;;;;;;;;;;;;;25.36;38.38;92570.59;5041401;28;9189;-57
2024/02/23 01:56:08;;;;;;;;;;;;;;;25.36;37.96;92570.59;5046137;28;7023;-57
2024/02/23 01:58:40;;;;;;;;;;;;;;;25.34;38.07;92561.41;5052109;28;9034;-57
2024/02/23 02:01:13;;;;;;;;;;;;;;;25.37;37.80;92563.81;5036826;28;8775;-57
2024/02/23 02:04:12;;;;;;;;;;;;;;;25.38;37.90;92559.75;5053314;28;7294;-57
2024/02/23 02:06:46;;;;;;;;;;;;;;;25.39;37.86;92552.25;5054308;28;8721;-57
2024/02/23 02:09:30;;;;;;;;;;;;;;;25.38;38.28;92556.28;5037374;28;8769;-57
2024/02/23 02:12:05;;;;;;;;;;;;;;;25.36;37.46;92553.34;5054248;28;7426;-57
2024/02/23 02:14:31;;;;;;;;;;;;;;;25.35;37.76;92554.63;5052349;28;7261;-57
2024/02/23 02:16:59;;;;;;;;;;;;;;;25.34;37.48;92550.41;5034776;28;7032;-57
2024/02/23 02:19:25;;;;;;;;;;;;;;;25.34;37.85;92544.91;5046561;28;9135;-57
2024/02/23 02:21:56;;;;;;;;;;;;;;;25.35;38.44;92536.13;5039321;28;7089;-57
2024/02/23 02:24:33;;;;;;;;;;;;;;;25.33;37.72;92522.19;5054003;28;8995;-57
2024/02/23 02:27:18;;;;;;;;;;;;;;;25.35;37.96;92529.88;5054448;28;8992;-57
2024/02/23 02:30:07;;;;;;;;;;;;;;;25.35;38.14;92518.88;5053434;28;7043;-57
2024/02/23 02:32:58;;;;;;;;;;;;;;;25.36;37.59;92518.31;5036355;28;9513;-57
2024/02/23 02:35:25;;;;;;;;;;;;;;;25.37;37.50;92527.28;5036913;28;9088;-37
2024/02/23 02:38:16;;;;;;;;;;;;;;;25.37;38.05;92527.28;5053200;28;7473;-37
2024/02/23 02:40:47;;;;;;;;;;;;;;;25.36;38.42;92523.06;5054334;28;8762;-37
2024/02/23 02:43:15;;;;;;;;;;;;;;;25.35;38.43;92529.88;5053194;28;7104;-37
2024/02/23 02:45:51;;;;;;;;;;;;;;;25.38;38.08;92528.78;5053249;28;9080;-37
2024/02/23 02:48:17;;;;;;;;;;;;;;;25.34;37.94;92529.13;5048076;28;7062;-37
2024/02/23 02:50:44;;;;;;;;;;;;;;;25.36;37.87;92531.31;5053914;28;8758;-37
2024/02/23 02:53:11;;;;;;;;;;;;;;;25.34;38.40;92523.63;5053421;28;9041;-37
2024/02/23 02:55:45;;;;;;;;;;;;;;;25.37;37.65;92527.28;5036216;28;9229;-37
2024/02/23 02:58:24;;;;;;;;;;;;;;;25.36;37.33;92512.06;5053519;28;7056;-37
2024/02/23 03:01:19;;;;;;;;;;;;;;;25.37;37.38;92508.03;5051408;28;7001;-37
2024/02/23 03:03:45;;;;;;;;;;;;;;;25.34;37.91;92501.63;4973067;28;9293;-37
2024/02/23 03:06:21;;;;;;;;;;;;;;;25.35;37.72;92505.09;4972932;28;9147;-37
2024/02/23 03:08:55;;;;;;;;;;;;;;;25.38;37.89;92520.53;4972847;28;7277;-37
2024/02/23 03:11:37;;;;;;;;;;;;;;;25.39;37.97;92521.97;4956750;28;8445;-37
2024/02/23 03:14:03;;;;;;;;;;;;;;;25.37;38.05;92519.78;4960058;28;7405;-37
2024/02/23 03:16:31;;;;;;;;;;;;;;;25.37;37.88;92506.03;4960642;28;7401;-37
2024/02/23 03:18:56;;;;;;;;;;;;;;;25.38;38.29;92523.97;4960375;28;7456;-37
2024/02/23 03:21:50;;;;;;;;;;;;;;;25.38;37.55;92526.03;4957331;28;7124;-37
2024/02/23 03:24:26;;;;;;;;;;;;;;;25.37;37.41;92530.78;4941747;28;7385;-37
2024/02/23 03:27:12;;;;;;;;;;;;;;;25.37;38.35;92508.78;4941333;28;7671;-37
2024/02/23 03:29:49;;;;;;;;;;;;;;;25.35;37.52;92514.09;4941725;28;8732;-37
2024/02/23 03:32:15;;;;;;;;;;;;;;;25.38;38.37;92512.25;4965828;28;7094;-37
2024/02/23 03:34:53;;;;;;;;;;;;;;;25.38;37.81;92509.50;4960693;28;8810;-37
2024/02/23 03:37:29;;;;;;;;;;;;;;;25.38;37.70;92512.25;4960299;28;9019;-37
2024/02/23 03:40:25;;;;;;;;;;;;;;;25.39;37.30;92505.47;4992712;28;7539;-37
2024/02/23 03:43:09;;;;;;;;;;;;;;;25.38;38.22;92490.97;4996140;28;9176;-38
2024/02/23 03:45:55;;;;;;;;;;;;;;;25.37;38.32;92484.00;4995792;28;8249;-37
2024/02/23 03:48:41;;;;;;;;;;;;;;;25.37;37.43;92488.75;4979400;28;7362;-37
2024/02/23 03:51:39;;;;;;;;;;;;;;;25.38;38.34;92490.25;4975970;28;7321;-37
2024/02/23 03:54:15;;;;;;;;;;;;;;;25.37;37.75;92486.00;4883993;29;7028;-37
2024/02/23 03:57:05;;;;;;;;;;;;;;;25.38;38.09;92479.25;4899690;29;7032;-37
2024/02/23 03:59:59;;;;;;;;;;;;;;;25.37;37.53;92489.50;4897008;29;8785;-37
2024/02/23 04:02:38;;;;;;;;;;;;;;;25.37;37.95;92491.53;4893631;29;7272;-37
2024/02/23 04:05:05;;;;;;;;;;;;;;;25.37;37.96;92488.75;4898226;29;9744;-37
2024/02/23 04:07:37;;;;;;;;;;;;;;;25.36;37.50;92488.03;4897754;29;8521;-37
2024/02/23 04:10:39;;;;;;;;;;;;;;;25.36;37.77;92479.78;4899429;29;7242;-37
2024/02/23 04:13:56;;;;;;;;;;;;;;;25.38;38.35;92485.44;4865059;29;8772;-37
2024/02/23 04:16:25;;;;;;;;;;;;;;;25.35;37.87;92491.34;4861703;29;9091;-37
2024/02/23 04:18:54;;;;;;;;;;;;;;;25.32;37.63;92479.41;4874045;29;9440;-37
2024/02/23 04:21:30;;;;;;;;;;;;;;;25.36;37.81;92490.78;4883799;29;7067;-37
2024/02/23 04:24:09;;;;;;;;;;;;;;;25.35;37.46;92497.59;4882366;29;7204;-37
2024/02/23 04:26:36;;;;;;;;;;;;;;;25.34;38.00;92496.09;4883395;29;7042;-37
2024/02/23 04:29:30;;;;;;;;;;;;;;;25.37;38.34;92494.28;4883644;29;7068;-37
2024/02/23 04:32:16;;;;;;;;;;;;;;;25.37;38.17;92491.53;4956051;28;9067;-37
2024/02/23 04:34:58;;;;;;;;;;;;;;;25.37;37.46;92497.75;4956000;28;7184;-37
2024/02/23 04:37:35;;;;;;;;;;;;;;;25.37;38.26;92491.53;4955616;28;8758;-37
2024/02/23 04:40:39;;;;;;;;;;;;;;;25.36;37.50;92492.78;4974722;28;7266;-37
2024/02/23 04:43:05;;;;;;;;;;;;;;;25.37;38.10;92508.03;4958974;28;7307;-37
2024/02/23 04:46:01;;;;;;;;;;;;;;;25.37;38.40;92508.03;4974949;28;7742;-37
2024/02/23 04:48:45;;;;;;;;;;;;;;;25.39;37.48;92513.72;4936853;29;8983;-37
2024/02/23 04:51:11;;;;;;;;;;;;;;;25.39;37.85;92505.47;4950328;28;7016;-37
2024/02/23 04:53:38;;;;;;;;;;;;;;;25.39;38.37;92513.72;4937931;28;9303;-39
2024/02/23 04:56:17;;;;;;;;;;;;;;;25.38;38.35;92526.03;4953952;28;9114;-39
2024/02/23 04:58:46;;;;;;;;;;;;;;;25.37;37.89;92508.03;4955637;28;7276;-39
2024/02/23 05:01:21;;;;;;;;;;;;;;;25.39;38.21;92510.97;4955501;28;9465;-40
2024/02/23 05:04:05;;;;;;;;;;;;;;;25.37;37.43;92506.03;4939792;28;8972;-40
2024/02/23 05:06:50;;;;;;;;;;;;;;;25.39;38.13;92508.22;4955618;28;9104;-41
2024/02/23 05:09:32;;;;;;;;;;;;;;;25.39;37.76;92508.22;4956178;28;7248;-39
2024/02/23 05:11:59;;;;;;;;;;;;;;;25.36;38.00;92520.31;4954344;28;7123;-40
2024/02/23 05:14:26;;;;;;;;;;;;;;;25.39;37.45;92513.72;4953104;28;7655;-39
2024/02/23 05:16:52;;;;;;;;;;;;;;;25.38;38.14;92512.25;4952619;28;7186;-38
2024/02/23 05:19:18;;;;;;;;;;;;;;;25.39;37.91;92508.22;4953926;28;6999;-40
2024/02/23 05:21:45;;;;;;;;;;;;;;;25.38;37.64;92512.97;4939268;28;7011;-40
2024/02/23 05:24:14;;;;;;;;;;;;;;;25.38;37.84;92515.72;4976102;28;7022;-39
2024/02/23 05:26:44;;;;;;;;;;;;;;;25.37;37.57;92517.03;5054069;28;9135;-39
2024/02/23 05:29:14;;;;;;;;;;;;;;;25.36;37.91;92512.78;5037659;28;7117;-39
2024/02/23 05:31:50;;;;;;;;;;;;;;;25.36;37.69;92510.03;5054315;28;9069;-39
2024/02/23 05:34:16;;;;;;;;;;;;;;;25.38;37.94;92506.75;5053863;28;7284;-39
2024/02/23 05:36:43;;;;;;;;;;;;;;;25.39;37.54;92502.69;5052549;28;8726;-39
2024/02/23 05:39:09;;;;;;;;;;;;;;;25.38;37.78;92495.75;5052226;28;7236;-38
2024/02/23 05:41:36;;;;;;;;;;;;;;;25.40;38.33;92487.66;5034152;28;9097;-39
2024/02/23 05:44:05;;;;;;;;;;;;;;;25.40;38.40;92493.16;5052288;28;7104;-39
2024/02/23 05:46:35;;;;;;;;;;;;;;;25.39;38.20;92486.94;5035537;28;6975;-39
2024/02/23 05:49:02;;;;;;;;;;;;;;;25.39;37.42;92480.69;5038958;28;9137;-39
2024/02/23 05:51:32;;;;;;;;;;;;;;;25.39;38.19;92477.94;5051805;28;7168;-38
2024/02/23 05:53:58;;;;;;;;;;;;;;;25.39;37.94;92486.19;5029043;28;10083;-39
2024/02/23 05:56:24;;;;;;;;;;;;;;;25.39;38.43;92481.44;5035126;28;7284;-39
2024/02/23 05:58:52;;;;;;;;;;;;;;;25.38;38.18;92490.25;5034984;28;7470;-39
2024/02/23 06:01:28;;;;;;;;;;;;;;;25.39;37.47;92491.69;5022114;28;7325;-39
2024/02/23 06:04:15;;;;;;;;;;;;;;;25.41;37.48;92481.59;5021876;28;9141;-38
2024/02/23 06:06:45;;;;;;;;;;;;;;;25.40;37.40;92477.38;5053248;28;7057;-38
2024/02/23 06:09:27;;;;;;;;;;;;;;;25.40;37.44;92493.88;5032946;28;7269;-38
2024/02/23 06:11:55;;;;;;;;;;;;;;;25.36;38.04;92493.53;5034073;28;8740;-40
2024/02/23 06:14:23;;;;;;;;;;;;;;;25.37;38.00;92500.50;5033123;28;9415;-41
2024/02/23 06:16:49;;;;;;;;;;;;;;;25.38;37.94;92504.00;5033891;28;6955;-39
2024/02/23 06:19:15;;;;;;;;;;;;;;;25.37;38.26;92500.50;5043608;28;7332;-39
2024/02/23 06:21:47;;;;;;;;;;;;;;;25.39;37.87;92491.69;5050461;28;9444;-39
2024/02/23 06:24:18;;;;;;;;;;;;;;;25.38;38.09;92479.25;5040161;28;6901;-39
2024/02/23 06:27:03;;;;;;;;;;;;;;;25.39;38.17;92492.44;5036632;28;7022;-39
2024/02/23 06:29:51;;;;;;;;;;;;;;;25.38;38.42;92512.25;5036920;28;7432;-39
2024/02/23 06:32:49;;;;;;;;;;;;;;;25.38;37.94;92523.97;5036989;28;9000;-39
2024/02/23 06:35:49;;;;;;;;;;;;;;;25.39;37.49;92510.97;5051214;28;7308;-39
2024/02/23 06:38:35;;;;;;;;;;;;;;;25.38;37.56;92521.22;5054247;28;7271;-39
2024/02/23 06:41:15;;;;;;;;;;;;;;;25.39;37.55;92517.19;5036437;28;7244;-38
2024/02/23 06:43:47;;;;;;;;;;;;;;;25.36;38.31;92514.81;5018563;28;7046;-40
2024/02/23 06:46:14;;;;;;;;;;;;;;;25.37;37.93;92519.78;5033429;28;7306;-38
2024/02/23 06:48:39;;;;;;;;;;;;;;;25.36;37.96;92514.81;5053924;28;9264;-39
2024/02/23 06:51:11;;;;;;;;;;;;;;;25.39;37.80;92522.72;5055297;28;8621;-38
2024/02/23 06:53:41;;;;;;;;;;;;;;;25.40;38.02;92534.47;5034006;28;7095;-39
2024/02/23 06:56:07;;;;;;;;;;;;;;;25.38;37.77;92526.03;5055945;28;8176;-39
2024/02/23 06:58:34;;;;;;;;;;;;;;;25.38;38.47;92520.53;5038714;28;9299;-39
2024/02/23 07:01:51;;;;;;;;;;;;;;;25.41;38.39;92516.66;5040276;28;9458;-40
2024/02/23 07:04:48;;;;;;;;;;;;;;;25.38;38.30;92523.28;5019277;28;7271;-39
2024/02/23 07:07:31;;;;;;;;;;;;;;;25.38;37.61;92531.53;4957466;28;7138;-39
2024/02/23 07:10:18;;;;;;;;;;;;;;;25.39;38.17;92536.47;4960993;28;8975;-41
2024/02/23 07:12:44;;;;;;;;;;;;;;;25.38;37.78;92546.00;4977304;28;8809;-41
2024/02/23 07:15:10;;;;;;;;;;;;;;;25.39;38.17;92539.22;4977269;28;8947;-57
2024/02/23 07:17:36;;;;;;;;;;;;;;;25.39;38.05;92532.97;4960134;28;9138;-57
2024/02/23 07:20:07;;;;;;;;;;;;;;;25.39;37.62;92530.97;4976835;28;7538;-57
2024/02/23 07:22:52;;;;;;;;;;;;;;;25.39;38.04;92530.22;4976622;28;7264;-57
2024/02/23 07:25:27;;;;;;;;;;;;;;;25.38;38.35;92528.78;4960707;28;8673;-57
2024/02/23 07:28:30;;;;;;;;;;;;;;;25.41;38.33;92544.16;4957260;28;7031;-57
2024/02/23 07:30:58;;;;;;;;;;;;;;;25.39;37.64;92550.22;4919220;29;7190;-57
2024/02/23 07:33:24;;;;;;;;;;;;;;;25.40;38.34;92551.69;4918897;29;7471;-57
2024/02/23 07:36:04;;;;;;;;;;;;;;;25.41;37.87;92546.91;4918880;29;7168;-57
2024/02/23 07:38:44;;;;;;;;;;;;;;;25.41;38.48;92557.94;4919097;29;7501;-57
2024/02/23 07:41:17;;;;;;;;;;;;;;;25.40;38.49;92553.72;4948516;28;7033;-57
2024/02/23 07:43:49;;;;;;;;;;;;;;;25.40;37.80;92548.94;4960539;28;7131;-57
2024/02/23 07:46:37;;;;;;;;;;;;;;;25.39;38.29;92549.50;4970913;28;7336;-57
2024/02/23 07:49:34;;;;;;;;;;;;;;;25.41;37.90;92555.91;4940970;28;7274;-57
2024/02/23 07:52:29;;;;;;;;;;;;;;;25.40;38.56;92559.22;4925911;28;7228;-57
2024/02/23 07:55:33;;;;;;;;;;;;;;;25.40;38.37;92561.97;4890512;29;7122;-57
2024/02/23 07:58:15;;;;;;;;;;;;;;;25.39;37.48;92561.25;4899662;29;9055;-57
2024/02/23 08:01:34;;;;;;;;;;;;;;;25.41;38.03;92557.94;4884274;29;7232;-57
2024/02/23 08:04:13;;;;;;;;;;;;;;;25.41;38.08;92572.44;4827281;29;7255;-57
2024/02/23 08:06:40;;;;;;;;;;;;;;;25.39;37.42;92560.50;4843451;29;9472;-57
2024/02/23 08:09:07;;;;;;;;;;;;;;;25.40;37.57;92556.47;4843577;29;7284;-58
2024/02/23 08:11:34;;;;;;;;;;;;;;;25.39;38.47;92561.25;4814565;29;7023;-57
2024/02/23 08:14:08;;;;;;;;;;;;;;;25.41;38.09;92560.69;4843271;29;9343;-57
2024/02/23 08:16:36;;;;;;;;;;;;;;;25.38;38.00;92551.50;4827895;29;7291;-57
2024/02/23 08:19:02;;;;;;;;;;;;;;;25.40;38.20;92548.22;4843194;29;7040;-57
2024/02/23 08:21:29;;;;;;;;;;;;;;;25.39;38.27;92552.97;4828286;29;6983;-57
2024/02/23 08:23:55;;;;;;;;;;;;;;;25.39;38.40;92555.72;4841671;29;8877;-37
2024/02/23 08:26:23;;;;;;;;;;;;;;;25.39;37.92;92541.97;4841982;29;7234;-37
2024/02/23 08:28:50;;;;;;;;;;;;;;;25.38;38.09;92539.78;4867891;29;7125;-38
2024/02/23 08:31:20;;;;;;;;;;;;;;;25.36;37.73;92537.56;4890888;29;7240;-37
2024/02/23 08:34:07;;;;;;;;;;;;;;;25.41;38.42;92544.16;4936921;29;7345;-37
2024/02/23 08:36:53;;;;;;;;;;;;;;;25.42;37.86;92542.91;4914767;29;8456;-37
2024/02/23 08:39:54;;;;;;;;;;;;;;;25.40;37.91;92542.72;5038564;28;7029;-37
2024/02/23 08:42:34;;;;;;;;;;;;;;;25.40;37.55;92537.22;4986349;28;7686;-37
2024/02/23 08:45:29;;;;;;;;;;;;;;;25.42;38.57;92540.16;4959527;28;7347;-37
2024/02/23 08:48:25;;;;;;;;;;;;;;;25.42;37.88;92540.88;4898805;29;7302;-37
2024/02/23 08:51:11;;;;;;;;;;;;;;;25.42;38.41;92529.88;4880092;29;7059;-38
2024/02/23 08:53:39;;;;;;;;;;;;;;;25.42;38.06;92523.66;4834256;29;7667;-37
2024/02/23 08:56:19;;;;;;;;;;;;;;;25.40;38.13;92520.69;4877313;29;8746;-37
2024/02/23 08:58:46;;;;;;;;;;;;;;;25.41;37.98;92531.13;4879672;29;7483;-37
2024/02/23 09:01:21;;;;;;;;;;;;;;;25.39;37.75;92519.97;4880030;29;8906;-37
2024/02/23 09:03:47;;;;;;;;;;;;;;;25.42;37.54;92526.41;4879477;29;8654;-37
2024/02/23 09:06:23;;;;;;;;;;;;;;;25.42;37.78;92537.41;4861289;29;7358;-38
2024/02/23 09:09:15;;;;;;;;;;;;;;;25.40;37.49;92526.19;4861358;29;7078;-37
2024/02/23 09:11:43;;;;;;;;;;;;;;;25.40;37.46;92513.16;4862619;29;7087;-37
2024/02/23 09:14:09;;;;;;;;;;;;;;;25.41;38.02;92514.63;4878993;29;7880;-37
2024/02/23 09:16:35;;;;;;;;;;;;;;;25.41;38.27;92522.16;4852523;29;8717;-37
2024/02/23 09:19:04;;;;;;;;;;;;;;;25.39;37.94;92525.47;4916520;29;7235;-37
2024/02/23 09:21:29;;;;;;;;;;;;;;;25.41;37.95;92522.88;4931686;29;9171;-37
2024/02/23 09:23:58;;;;;;;;;;;;;;;25.38;38.34;92523.28;4937506;28;7220;-37
2024/02/23 09:26:24;;;;;;;;;;;;;;;25.38;38.22;92537.03;4984454;28;7251;-37
2024/02/23 09:28:53;;;;;;;;;;;;;;;25.39;37.52;92525.47;5052253;28;8985;-37
2024/02/23 09:31:19;;;;;;;;;;;;;;;25.41;38.02;92533.91;5051074;28;7289;-37
2024/02/23 09:33:46;;;;;;;;;;;;;;;25.38;37.92;92526.03;5033209;28;7241;-37
2024/02/23 09:36:12;;;;;;;;;;;;;;;25.40;38.09;92521.41;5032806;28;9341;-37
2024/02/23 09:38:38;;;;;;;;;;;;;;;25.41;37.78;92513.88;5049218;28;7127;-37
2024/02/23 09:41:17;;;;;;;;;;;;;;;25.38;37.41;92515.72;5035849;28;7105;-37
2024/02/23 09:43:47;;;;;;;;;;;;;;;25.40;37.55;92515.19;5053519;28;7157;-37
2024/02/23 09:46:18;;;;;;;;;;;;;;;25.37;38.17;92511.53;5028727;28;9157;-37
2024/02/23 09:48:45;;;;;;;;;;;;;;;25.39;37.77;92511.69;5035269;28;7390;-37
2024/02/23 09:51:23;;;;;;;;;;;;;;;25.36;38.22;92512.06;5037049;28;9813;-37
2024/02/23 09:54:05;;;;;;;;;;;;;;;25.39;37.87;92513.72;5055187;28;7134;-37
2024/02/23 09:56:36;;;;;;;;;;;;;;;25.38;38.28;92506.75;5016582;28;7305;-37
2024/02/23 09:59:04;;;;;;;;;;;;;;;25.36;37.47;92501.78;5033248;28;6997;-37
2024/02/23 10:01:34;;;;;;;;;;;;;;;25.39;37.52;92503.44;5035971;28;7781;-37
2024/02/23 10:04:04;;;;;;;;;;;;;;;25.40;37.84;92504.19;5034910;28;7714;-37
2024/02/23 10:06:32;;;;;;;;;;;;;;;25.39;38.40;92508.94;5052430;28;7058;-37
2024/02/23 10:09:00;;;;;;;;;;;;;;;25.38;38.32;92507.47;5037120;28;9866;-38
2024/02/23 10:11:32;;;;;;;;;;;;;;;25.41;38.06;92505.63;5017247;28;7041;-37
2024/02/23 10:14:29;;;;;;;;;;;;;;;25.43;37.38;92503.09;5033619;28;7237;-37
2024/02/23 10:16:57;;;;;;;;;;;;;;;25.38;38.29;92501.25;4991897;28;7096;-37
2024/02/23 10:19:28;;;;;;;;;;;;;;;25.40;37.94;92495.94;4993430;28;7286;-37
2024/02/23 10:22:07;;;;;;;;;;;;;;;25.39;37.97;92481.44;5011661;28;7006;-37
2024/02/23 10:24:53;;;;;;;;;;;;;;;25.39;37.93;92497.94;4996073;28;7236;-37
2024/02/23 10:27:33;;;;;;;;;;;;;;;25.40;38.09;92515.91;4996408;28;8907;-37
2024/02/23 10:30:11;;;;;;;;;;;;;;;25.41;37.96;92500.13;4996204;28;9256;-37
2024/02/23 10:32:46;;;;;;;;;;;;;;;25.41;37.60;92502.88;4996414;28;9235;-38
2024/02/23 10:35:31;;;;;;;;;;;;;;;25.43;38.10;92511.34;5011925;28;7289;-37
2024/02/23 10:37:58;;;;;;;;;;;;;;;25.41;38.17;92508.38;4995889;28;9170;-37
2024/02/23 10:40:42;;;;;;;;;;;;;;;25.43;38.31;92519.59;4996289;28;9046;-37
2024/02/23 10:43:21;;;;;;;;;;;;;;;25.40;38.25;92517.94;4996222;28;9067;-38
2024/02/23 10:45:49;;;;;;;;;;;;;;;25.42;37.84;92516.09;4995849;28;8214;-38
2024/02/23 10:48:30;;;;;;;;;;;;;;;25.43;38.16;92514.84;5007377;28;7493;-37
2024/02/23 10:51:07;;;;;;;;;;;;;;;25.43;38.27;92512.09;4995884;28;7051;-38
2024/02/23 10:53:36;;;;;;;;;;;;;;;25.40;37.41;92504.91;5021971;28;7147;-38
2024/02/23 10:56:05;;;;;;;;;;;;;;;25.39;38.04;92506.19;5016237;28;9142;-37
2024/02/23 10:58:43;;;;;;;;;;;;;;;25.42;38.35;92505.09;5033070;28;7188;-38
2024/02/23 11:01:13;;;;;;;;;;;;;;;25.44;37.75;92501.81;5016740;28;7030;-38
2024/02/23 11:03:46;;;;;;;;;;;;;;;25.43;38.19;92498.31;5033954;28;7255;-38
2024/02/23 11:06:16;;;;;;;;;;;;;;;25.44;37.31;92496.31;5016612;28;9441;-38
2024/02/23 11:09:08;;;;;;;;;;;;;;;25.44;37.83;92499.06;5032875;28;9058;-38
2024/02/23 11:11:37;;;;;;;;;;;;;;;25.45;37.36;92499.78;5034770;28;7835;-38
2024/02/23 11:14:08;;;;;;;;;;;;;;;25.46;37.53;92509.50;5052125;28;7877;-37
2024/02/23 11:16:41;;;;;;;;;;;;;;;25.45;37.37;92506.00;5051344;28;7254;-38
2024/02/23 11:19:12;;;;;;;;;;;;;;;25.47;38.21;92503.44;5051316;28;7041;-38
2024/02/23 11:21:54;;;;;;;;;;;;;;;25.45;38.09;92495.00;5051272;28;7038;-38
2024/02/23 11:24:28;;;;;;;;;;;;;;;25.44;37.36;92490.81;5051468;28;9257;-37
2024/02/23 11:27:07;;;;;;;;;;;;;;;25.46;38.12;92488.22;5018956;28;8760;-37
2024/02/23 11:29:35;;;;;;;;;;;;;;;25.45;37.44;92472.97;5052799;28;8716;-37
2024/02/23 11:32:03;;;;;;;;;;;;;;;25.49;37.19;92478.13;5035546;28;8729;-38
2024/02/23 11:34:34;;;;;;;;;;;;;;;25.48;37.35;92490.41;5053360;28;9413;-38
2024/02/23 11:37:09;;;;;;;;;;;;;;;25.48;37.25;92477.38;5037081;28;7362;-37
2024/02/23 11:40:06;;;;;;;;;;;;;;;25.48;37.50;92482.91;5057384;28;9012;-38
2024/02/23 11:42:34;;;;;;;;;;;;;;;25.49;37.30;92484.34;4995729;28;9053;-38
2024/02/23 11:45:03;;;;;;;;;;;;;;;25.49;37.24;92473.34;4979367;28;7373;-38
2024/02/23 11:47:38;;;;;;;;;;;;;;;25.49;37.68;92473.34;4979222;28;7167;-38
2024/02/23 11:50:08;;;;;;;;;;;;;;;25.52;37.95;92466.72;4978421;28;9360;-38
2024/02/23 11:52:34;;;;;;;;;;;;;;;25.52;36.99;92469.47;4994199;28;9210;-38
2024/02/23 11:55:02;;;;;;;;;;;;;;;25.50;37.00;92480.31;4982492;28;7113;-41
2024/02/23 11:57:28;;;;;;;;;;;;;;;25.52;37.85;92477.75;4976866;28;7332;-41
2024/02/23 12:00:32;;;;;;;;;;;;;;;25.58;37.84;92478.25;4979005;28;8188;-42
2024/02/23 12:03:09;;;;;;;;;;;;;;;25.55;37.79;92467.63;4995734;28;7121;-41
2024/02/23 12:05:49;;;;;;;;;;;;;;;25.56;37.02;92464.31;4979199;28;7320;-42
2024/02/23 12:08:26;;;;;;;;;;;;;;;25.57;37.60;92468.56;4978763;28;7305;-42
2024/02/23 12:10:59;;;;;;;;;;;;;;;25.58;37.37;92459.00;4980479;28;9287;-41
2024/02/23 12:13:26;;;;;;;;;;;;;;;25.59;37.19;92465.25;4979232;28;7272;-41
2024/02/23 12:15:53;;;;;;;;;;;;;;;25.57;37.58;92462.31;4989499;28;7007;-42
2024/02/23 12:18:31;;;;;;;;;;;;;;;25.55;37.64;92460.13;4986497;28;9186;-41
2024/02/23 12:21:02;;;;;;;;;;;;;;;25.55;37.47;92459.38;5033204;28;7265;-41
2024/02/23 12:23:44;;;;;;;;;;;;;;;25.56;37.39;92458.81;5052178;28;7676;-42
2024/02/23 12:26:18;;;;;;;;;;;;;;;25.56;36.87;92455.31;5038599;28;7185;-41
2024/02/23 12:29:02;;;;;;;;;;;;;;;25.57;37.14;92449.28;5038821;28;7262;-41
2024/02/23 12:31:37;;;;;;;;;;;;;;;25.57;37.84;92454.78;5055635;28;8967;-42
2024/02/23 12:34:22;;;;;;;;;;;;;;;25.58;37.06;92456.25;5056499;28;7348;-41
2024/02/23 12:36:51;;;;;;;;;;;;;;;25.58;38.02;92444.53;5038711;28;7663;-41
2024/02/23 12:39:31;;;;;;;;;;;;;;;25.57;37.38;92449.28;5055132;28;7470;-41
2024/02/23 12:41:58;;;;;;;;;;;;;;;25.58;37.46;92447.97;5035229;28;6990;-42
2024/02/23 12:44:24;;;;;;;;;;;;;;;25.56;37.43;92439.53;5034932;28;7472;-42
2024/02/23 12:46:51;;;;;;;;;;;;;;;25.58;37.75;92434.22;5045973;28;7051;-43
2024/02/23 12:49:17;;;;;;;;;;;;;;;25.61;37.90;92433.13;5039476;28;9353;-42
2024/02/23 12:51:47;;;;;;;;;;;;;;;25.64;37.30;92439.53;5040047;28;7199;-42
2024/02/23 12:54:45;;;;;;;;;;;;;;;25.68;37.96;92426.09;5029447;28;8295;-41
2024/02/23 12:57:38;;;;;;;;;;;;;;;25.67;37.04;92425.38;5034314;28;7100;-42
2024/02/23 13:00:05;;;;;;;;;;;;;;;25.66;37.14;92420.44;4958689;28;7289;-42
2024/02/23 13:02:32;;;;;;;;;;;;;;;25.65;37.53;92419.69;4977355;28;7655;-42
2024/02/23 13:05:09;;;;;;;;;;;;;;;25.62;37.90;92415.28;4994753;28;7030;-39
2024/02/23 13:08:07;;;;;;;;;;;;;;;25.66;37.15;92415.66;4978471;28;7295;-39
2024/02/23 13:10:35;;;;;;;;;;;;;;;25.64;37.19;92421.00;4977952;28;7267;-39
2024/02/23 13:13:10;;;;;;;;;;;;;;;25.65;37.73;92414.19;4978212;28;9407;-39
2024/02/23 13:15:39;;;;;;;;;;;;;;;25.66;37.29;92409.41;4977555;28;7393;-41
2024/02/23 13:18:07;;;;;;;;;;;;;;;25.67;37.40;92405.34;4977535;28;7020;-39
2024/02/23 13:20:33;;;;;;;;;;;;;;;25.69;36.84;92409.03;4994149;28;7026;-39
2024/02/23 13:23:30;;;;;;;;;;;;;;;25.71;38.01;92406.44;4974622;28;7494;-41
2024/02/23 13:26:14;;;;;;;;;;;;;;;25.74;37.81;92410.09;4977051;28;7442;-40
2024/02/23 13:28:46;;;;;;;;;;;;;;;25.76;37.72;92402.75;4993540;28;7343;-39
2024/02/23 13:31:21;;;;;;;;;;;;;;;25.79;37.22;92407.16;4993426;28;7333;-40
2024/02/23 13:33:56;;;;;;;;;;;;;;;25.79;37.31;92398.88;4976955;28;7063;-39
2024/02/23 13:36:26;;;;;;;;;;;;;;;25.83;37.27;92396.47;5011190;28;7138;-39
2024/02/23 13:38:52;;;;;;;;;;;;;;;25.84;37.78;92397.91;5053846;28;7178;-39